Terminal Aerodrome Forecast
Issued by NWS

Home | Current Version | Previous Version | Graphics & Text | Print | Product List | Glossary On
Versions: 1 2 3 4 5 6 7 8 9 10 11 12 13 14 15 16 17 18 19
000
FTUS43 KBIS 221400 AAA
TAFJMS
TAF AMD
KJMS 221421Z 2214/2312 09005KT 1/2SM FG OVC002
      TEMPO 2214/2217 1/4SM FZFG OVC001
     FM221700 04008KT 1SM BR OVC003
     FM222000 01014KT 1SM -SN BR OVC008
     FM230000 36018KT 3/4SM -SN OVC008=

USA.gov is the U.S. government's official web portal to all federal, state and local government web resources and services.